Time,TemperatureF,DewpointF,PressureIn,WindDirection,WindDirectionDegrees,WindSpeedMPH,WindSpeedGustMPH,Humidity,HourlyPrecipIn,Conditions,Clouds,dailyrainin,SolarRadiationWatts/m^2,SoftwareType,DateUTC
2013-02-27 00:00:00,25.0,18.0,-100.00,SSE,156,5.0,7.0,75,-99.99,,,0.00,-0.200000,,2013-02-27 08:00:00,
2013-02-27 00:52:00,25.0,18.0,-100.00,SSE,156,5.0,7.0,75,-99.99,,,0.00,-0.200000,,2013-02-27 08:52:00,
2013-02-27 01:00:00,28.0,21.0,-100.00,South,171,6.0,9.0,75,-99.99,,,0.00,-0.200000,,2013-02-27 09:00:00,
2013-02-27 01:52:00,28.0,21.0,-100.00,South,171,6.0,9.0,75,-99.99,,,0.00,-0.200000,,2013-02-27 09:52:00,
2013-02-27 02:00:00,28.0,22.0,-100.00,SE,141,7.0,10.0,79,-99.99,,,-99.99,-0.200000,,2013-02-27 10:00:00,
2013-02-27 02:52:00,28.0,22.0,-100.00,SE,141,7.0,10.0,79,-99.99,,,-99.99,-0.200000,,2013-02-27 10:52:00,
2013-02-27 03:00:00,25.0,20.0,-100.00,SSE,156,6.0,9.0,81,-99.99,,,0.00,-0.200000,,2013-02-27 11:00:00,
2013-02-27 03:52:00,25.0,20.0,-100.00,SSE,156,6.0,9.0,81,-99.99,,,0.00,-0.200000,,2013-02-27 11:52:00,
2013-02-27 04:00:00,26.0,22.0,-100.00,SSE,153,7.0,11.0,84,-99.99,,,0.00,-0.200000,,2013-02-27 12:00:00,
2013-02-27 04:52:00,26.0,22.0,-100.00,SSE,153,7.0,11.0,84,-99.99,,,0.00,-0.200000,,2013-02-27 12:52:00,
2013-02-27 05:00:00,26.0,23.0,-100.00,SSW,209,11.0,16.0,88,-99.99,,,0.00,0.200000,,2013-02-27 13:00:00,
2013-02-27 05:52:00,26.0,23.0,-100.00,SSW,209,11.0,16.0,88,-99.99,,,0.00,0.200000,,2013-02-27 13:52:00,
2013-02-27 06:00:00,27.0,25.0,-100.00,SSW,209,9.0,14.0,90,-99.99,,,0.00,1.100000,,2013-02-27 14:00:00,
2013-02-27 06:52:00,27.0,25.0,-100.00,SSW,209,9.0,14.0,90,-99.99,,,0.00,1.100000,,2013-02-27 14:52:00,
2013-02-27 07:00:00,27.0,23.0,-100.00,SSW,199,8.0,12.0,83,-99.99,,,-99.99,2.000000,,2013-02-27 15:00:00,
2013-02-27 07:52:00,27.0,23.0,-100.00,SSW,199,8.0,12.0,83,-99.99,,,-99.99,2.000000,,2013-02-27 15:52:00,
2013-02-27 08:00:00,26.0,21.0,-100.00,NW,311,5.0,11.0,79,-99.99,,,0.00,21.299999,,2013-02-27 16:00:00,
2013-02-27 08:52:00,26.0,21.0,-100.00,NW,311,5.0,11.0,79,-99.99,,,0.00,21.299999,,2013-02-27 16:52:00,
2013-02-27 09:00:00,29.0,22.0,-100.00,ESE,107,2.0,5.0,77,-99.99,,,0.00,83.699997,,2013-02-27 17:00:00,
2013-02-27 09:52:00,29.0,22.0,-100.00,ESE,107,2.0,5.0,77,-99.99,,,0.00,83.699997,,2013-02-27 17:52:00,
2013-02-27 11:00:00,34.0,21.0,-100.00,SSW,199,4.0,7.0,60,-99.99,,,-99.99,527.299988,,2013-02-27 19:00:00,
2013-02-27 11:52:00,34.0,21.0,-100.00,SSW,199,4.0,7.0,60,-99.99,,,-99.99,527.299988,,2013-02-27 19:52:00,
2013-02-27 12:00:00,34.0,22.0,-100.00,South,177,4.0,7.0,63,-99.99,,,-99.99,568.099976,,2013-02-27 20:00:00,
2013-02-27 13:00:00,33.0,22.0,-100.00,SE,136,5.0,8.0,62,-99.99,,,-99.99,577.799988,,2013-02-27 21:00:00,
2013-02-27 13:52:00,33.0,22.0,-100.00,SE,136,5.0,8.0,62,-99.99,,,-99.99,577.799988,,2013-02-27 21:52:00,
2013-02-27 14:00:00,35.0,23.0,-100.00,South,179,5.0,7.0,63,-99.99,,,0.00,467.899994,,2013-02-27 22:00:00,
2013-02-27 14:52:00,35.0,23.0,-100.00,South,179,5.0,7.0,63,-99.99,,,0.00,467.899994,,2013-02-27 22:52:00,
2013-02-27 15:00:00,35.0,23.0,-100.00,ESE,103,4.0,6.0,63,-99.99,,,0.00,364.200012,,2013-02-27 23:00:00,
2013-02-27 15:53:00,35.0,23.0,-100.00,ESE,103,4.0,6.0,63,-99.99,,,0.00,364.200012,,2013-02-27 23:53:00,
2013-02-27 16:00:00,34.0,24.0,-100.00,ESE,121,3.0,5.0,67,-99.99,,,0.00,197.100006,,2013-02-28 00:00:00,
2013-02-27 16:52:00,34.0,24.0,-100.00,ESE,121,3.0,5.0,67,-99.99,,,0.00,197.100006,,2013-02-28 00:52:00,
2013-02-27 17:00:00,32.0,24.0,-100.00,SSE,148,3.0,5.0,72,-99.99,,,-99.99,118.500000,,2013-02-28 01:00:00,
2013-02-27 17:52:00,32.0,24.0,-100.00,SSE,148,3.0,5.0,72,-99.99,,,-99.99,118.500000,,2013-02-28 01:52:00,
2013-02-27 18:00:00,30.0,24.0,-100.00,SE,145,2.0,3.0,79,-99.99,,,-99.99,13.400000,,2013-02-28 02:00:00,
2013-02-27 19:00:00,29.0,24.0,-100.00,SSE,153,2.0,4.0,81,-99.99,,,0.00,-0.700000,,2013-02-28 03:00:00,
2013-02-27 19:52:00,29.0,24.0,-100.00,SSE,153,2.0,4.0,81,-99.99,,,0.00,-0.700000,,2013-02-28 03:52:00,
2013-02-27 20:00:00,29.0,25.0,-100.00,SSE,161,3.0,5.0,84,-99.99,,,0.00,-0.200000,,2013-02-28 04:00:00,
2013-02-27 20:52:00,29.0,25.0,-100.00,SSE,161,3.0,5.0,84,-99.99,,,0.00,-0.200000,,2013-02-28 04:52:00,
2013-02-27 21:00:00,29.0,25.0,-100.00,SE,136,3.0,6.0,86,-99.99,,,-99.99,-0.200000,,2013-02-28 05:00:00,
2013-02-27 21:52:00,29.0,25.0,-100.00,SE,136,3.0,6.0,86,-99.99,,,-99.99,-0.200000,,2013-02-28 05:52:00,
2013-02-27 22:00:00,29.0,24.0,-100.00,East,91,2.0,6.0,83,-99.99,,,0.00,-0.200000,,2013-02-28 06:00:00,
2013-02-27 22:52:00,29.0,24.0,-100.00,East,91,2.0,6.0,83,-99.99,,,0.00,-0.200000,,2013-02-28 06:52:00,
2013-02-27 23:00:00,29.0,24.0,-100.00,SW,222,5.0,8.0,80,-99.99,,,0.00,-0.200000,,2013-02-28 07:00:00,
2013-02-27 23:52:00,29.0,24.0,-100.00,SW,222,5.0,8.0,80,-99.99,,,0.00,-0.200000,,2013-02-28 07:52:00,